Time;durP1;ratioP1;P1;durP2;ratioP2;P2;SDS_P1;SDS_P2;PMS_P1;PMS_P2;Temp;Humidity;BMP_temperature;BMP_pressure;BME280_temperature;BME280_humidity;BME280_pressure;Samples;Min_cycle;Max_cycle;Signal;HPM_P1;HPM_P2
2024/02/08 00:00:47;;;;;;;1.00;1.00;;;;;;;-147.86;100.00;-17609.17;104916;1266;72198;-59
2024/02/08 00:03:15;;;;;;;1.40;1.00;;;;;;;-147.86;100.00;-17609.17;104933;1264;62249;-56
2024/02/08 00:05:43;;;;;;;3.60;1.50;;;;;;;-147.86;100.00;-17609.17;104921;1269;71348;-57
2024/02/08 00:08:11;;;;;;;1.70;1.60;;;;;;;-147.86;100.00;-17609.17;105105;1264;206414;-59
2024/02/08 00:10:40;;;;;;;3.40;1.80;;;;;;;-147.86;100.00;-17609.17;105187;1267;59443;-59
2024/02/08 00:13:08;;;;;;;2.70;2.50;;;;;;;-147.86;100.00;-17609.17;105164;1264;70946;-57
2024/02/08 00:15:36;;;;;;;5.60;2.20;;;;;;;-147.86;100.00;-17609.17;105209;1261;63360;-56
2024/02/08 00:18:04;;;;;;;4.60;2.00;;;;;;;-147.86;100.00;-17609.17;105182;1264;72787;-53
2024/02/08 00:20:33;;;;;;;2.50;2.30;;;;;;;-147.86;100.00;-17609.17;105198;1268;59746;-57
2024/02/08 00:23:01;;;;;;;3.60;1.60;;;;;;;-147.86;100.00;-17609.17;105231;1264;59576;-57
2024/02/08 00:25:29;;;;;;;4.70;1.40;;;;;;;-147.86;100.00;-17609.17;105232;1267;71823;-57
2024/02/08 00:27:56;;;;;;;1.50;1.30;;;;;;;-147.86;100.00;-17609.17;105178;1262;63152;-54
2024/02/08 00:30:25;;;;;;;1.00;0.80;;;;;;;-147.86;100.00;-17609.17;105187;1264;71741;-56
2024/02/08 00:32:52;;;;;;;2.20;0.90;;;;;;;-147.86;100.00;-17609.17;105171;1264;60026;-54
2024/02/08 00:35:20;;;;;;;0.80;0.80;;;;;;;-147.86;100.00;-17609.17;105232;1268;59605;-59
2024/02/08 00:37:48;;;;;;;1.40;0.80;;;;;;;-147.86;100.00;-17609.17;105174;1264;73257;-57
2024/02/08 00:40:17;;;;;;;1.30;0.90;;;;;;;-147.86;100.00;-17609.17;105201;1264;63198;-61
2024/02/08 00:42:48;;;;;;;2.90;0.80;;;;;;;-147.86;100.00;-17609.17;105077;1268;71348;-58
2024/02/08 00:45:18;;;;;;;3.60;1.10;;;;;;;-147.86;100.00;-17609.17;105193;1265;59732;-61
2024/02/08 00:54:11;;;;;;;1.40;1.30;;;;;;;-147.86;100.00;-17609.17;103060;1289;599634;-57
2024/02/08 00:56:41;;;;;;;2.30;1.60;;;;;;;-147.86;100.00;-17609.17;105046;1265;59343;-56
2024/02/08 00:59:10;;;;;;;3.60;2.10;;;;;;;-147.86;100.00;-17609.17;105102;1264;59641;-55
2024/02/08 01:01:39;;;;;;;1.80;1.70;;;;;;;-147.86;100.00;-17609.17;105062;1264;72195;-58
2024/02/08 01:04:07;;;;;;;2.80;2.50;;;;;;;-147.86;100.00;-17609.17;105066;1264;63235;-55
2024/02/08 01:06:40;;;;;;;2.70;2.50;;;;;;;-147.86;100.00;-17609.17;104882;1267;212964;-59
2024/02/08 01:09:08;;;;;;;5.80;2.80;;;;;;;-147.86;100.00;-17609.17;105721;1256;59278;-58
2024/02/08 01:11:36;;;;;;;3.30;2.70;;;;;;;-147.86;100.00;-17609.17;105683;1255;59308;-54
2024/02/08 01:14:04;;;;;;;5.20;2.70;;;;;;;-147.86;100.00;-17609.17;105655;1254;72149;-59
2024/02/08 01:16:33;;;;;;;4.70;3.40;;;;;;;-147.86;100.00;-17609.17;105624;1255;63195;-59
2024/02/08 01:19:02;;;;;;;3.60;3.30;;;;;;;-147.86;100.00;-17609.17;105580;1262;71404;-57
2024/02/08 01:21:31;;;;;;;5.60;3.60;;;;;;;-147.86;100.00;-17609.17;105670;1257;59739;-57
2024/02/08 01:23:59;;;;;;;3.60;2.90;;;;;;;-147.86;100.00;-17609.17;105705;1260;59701;-58
2024/02/08 01:26:27;;;;;;;5.40;3.20;;;;;;;-147.86;100.00;-17609.17;105610;1259;73021;-57
2024/02/08 01:28:54;;;;;;;3.80;2.30;;;;;;;-147.86;100.00;-17609.17;105694;1254;63216;-55
2024/02/08 01:31:22;;;;;;;2.80;2.20;;;;;;;-147.86;100.00;-17609.17;105647;1260;72669;-58
2024/02/08 01:33:50;;;;;;;4.20;1.70;;;;;;;-147.86;100.00;-17609.17;105664;1259;59730;-56
2024/02/08 01:36:18;;;;;;;1.90;1.40;;;;;;;-147.86;100.00;-17609.17;105670;1254;59633;-55
2024/02/08 01:38:46;;;;;;;4.10;1.40;;;;;;;-147.86;100.00;-17609.17;105655;1254;73003;-57
2024/02/08 01:41:14;;;;;;;13.60;1.70;;;;;;;-147.86;100.00;-17609.17;105700;1259;64440;-59
2024/02/08 01:43:41;;;;;;;1.60;1.10;;;;;;;-147.86;100.00;-17609.17;105650;1258;71436;-56
2024/02/08 01:46:10;;;;;;;2.40;1.50;;;;;;;-147.86;100.00;-17609.17;105654;1258;59746;-53
2024/02/08 01:48:44;;;;;;;6.50;1.50;;;;;;;-147.86;100.00;-17609.17;105661;1254;60178;-59
2024/02/08 01:51:13;;;;;;;6.90;1.80;;;;;;;-147.86;100.00;-17609.17;105692;1255;70850;-57
2024/02/08 01:53:43;;;;;;;11.70;1.80;;;;;;;-147.86;100.00;-17609.17;105638;1260;64324;-57
2024/02/08 01:56:11;;;;;;;18.30;2.60;;;;;;;-147.86;100.00;-17609.17;105614;1258;72093;-59
2024/02/08 01:58:42;;;;;;;7.80;2.40;;;;;;;-147.86;100.00;-17609.17;105602;1254;59883;-58
2024/02/08 02:01:12;;;;;;;5.20;1.90;;;;;;;-147.86;100.00;-17609.17;105345;1254;59565;-56
2024/02/08 02:03:41;;;;;;;9.40;2.00;;;;;;;-147.86;100.00;-17609.17;105604;1258;71788;-59
2024/02/08 02:06:11;;;;;;;3.00;2.30;;;;;;;-147.86;100.00;-17609.17;105698;1257;63144;-57
2024/02/08 02:08:39;;;;;;;2.80;2.30;;;;;;;-147.86;100.00;-17609.17;105676;1257;71437;-59
2024/02/08 02:11:17;;;;;;;3.80;1.80;;;;;;;-147.86;100.00;-17609.17;105652;1257;59627;-57
2024/02/08 02:13:46;;;;;;;2.70;1.70;;;;;;;-147.86;100.00;-17609.17;105602;1260;60387;-59
2024/02/08 02:16:14;;;;;;;1.80;1.70;;;;;;;-147.86;100.00;-17609.17;105495;1262;71923;-54
2024/02/08 02:18:43;;;;;;;2.40;1.40;;;;;;;-147.86;100.00;-17609.17;105676;1256;63073;-59
2024/02/08 02:21:13;;;;;;;2.10;1.20;;;;;;;-147.86;100.00;-17609.17;105639;1260;72717;-58
2024/02/08 02:23:42;;;;;;;5.60;1.70;;;;;;;-147.86;100.00;-17609.17;105570;1262;59762;-56
2024/02/08 02:26:12;;;;;;;4.00;1.10;;;;;;;-147.86;100.00;-17609.17;105632;1260;59855;-55
2024/02/08 02:28:40;;;;;;;0.90;0.70;;;;;;;-147.86;100.00;-17609.17;105541;1258;71834;-59
2024/02/08 02:31:13;;;;;;;6.10;0.90;;;;;;;-147.86;100.00;-17609.17;105600;1260;64327;-55
2024/02/08 02:33:41;;;;;;;1.50;0.50;;;;;;;-147.86;100.00;-17609.17;105641;1260;72604;-58
2024/02/08 02:36:14;;;;;;;3.70;0.50;;;;;;;-147.86;100.00;-17609.17;105607;1261;59909;-54
2024/02/08 02:38:43;;;;;;;0.90;0.40;;;;;;;-147.86;100.00;-17609.17;105630;1260;59704;-57
2024/02/08 02:41:11;;;;;;;2.80;0.50;;;;;;;-147.86;100.00;-17609.17;105626;1260;71065;-57
2024/02/08 02:43:39;;;;;;;1.00;0.40;;;;;;;-147.86;100.00;-17609.17;105631;1257;63227;-57
2024/02/08 02:46:07;;;;;;;1.30;0.40;;;;;;;-147.86;100.00;-17609.17;105654;1258;72679;-56
2024/02/08 02:48:35;;;;;;;0.80;0.30;;;;;;;-147.86;100.00;-17609.17;105622;1260;60827;-56
2024/02/08 02:51:04;;;;;;;1.50;0.50;;;;;;;-147.86;100.00;-17609.17;105657;1256;59748;-56
2024/02/08 02:53:35;;;;;;;3.70;0.60;;;;;;;-147.86;100.00;-17609.17;105649;1260;72963;-56
2024/02/08 02:56:05;;;;;;;1.40;0.60;;;;;;;-147.86;100.00;-17609.17;105663;1257;64462;-55
2024/02/08 02:58:35;;;;;;;0.50;0.50;;;;;;;-147.86;100.00;-17609.17;105624;1257;71333;-52
2024/02/08 03:01:06;;;;;;;0.70;0.70;;;;;;;-147.86;100.00;-17609.17;105632;1256;59739;-55
2024/02/08 03:03:40;;;;;;;0.80;0.40;;;;;;;-147.86;100.00;-17609.17;105662;1260;59785;-58
2024/02/08 03:06:13;;;;;;;2.10;0.70;;;;;;;-147.86;100.00;-17609.17;105617;1257;73034;-60
2024/02/08 03:08:46;;;;;;;1.80;1.00;;;;;;;-147.86;100.00;-17609.17;105657;1260;64346;-59
2024/02/08 03:11:14;;;;;;;1.30;0.80;;;;;;;-147.86;100.00;-17609.17;105655;1260;70426;-58
2024/02/08 03:13:43;;;;;;;1.00;0.60;;;;;;;-147.86;100.00;-17609.17;105631;1260;59749;-60
2024/02/08 03:16:14;;;;;;;1.10;0.70;;;;;;;-147.86;100.00;-17609.17;105657;1254;60392;-57
2024/02/08 03:18:43;;;;;;;0.80;0.70;;;;;;;-147.86;100.00;-17609.17;105647;1257;71729;-58
2024/02/08 03:21:17;;;;;;;4.80;0.90;;;;;;;-147.86;100.00;-17609.17;105654;1260;64913;-52
2024/02/08 03:23:50;;;;;;;1.90;0.90;;;;;;;-147.86;100.00;-17609.17;105660;1260;71404;-54
2024/02/08 03:26:18;;;;;;;0.50;0.50;;;;;;;-147.86;100.00;-17609.17;105562;1257;59746;-59
2024/02/08 03:28:46;;;;;;;2.60;0.70;;;;;;;-147.86;100.00;-17609.17;105632;1260;59640;-55
2024/02/08 03:31:14;;;;;;;3.00;0.90;;;;;;;-147.86;100.00;-17609.17;105658;1257;71811;-55
2024/02/08 03:33:45;;;;;;;4.00;0.80;;;;;;;-147.86;100.00;-17609.17;105607;1257;63168;-59
2024/02/08 03:53:43;;;;;;;4.70;1.70;;;;;;;-147.86;100.00;-12925.62;102762;1290;600245;-58
2024/02/08 03:56:15;;;;;;;3.90;1.60;;;;;;;-147.86;100.00;-17609.17;105045;1267;60820;-55
2024/02/08 03:58:42;;;;;;;3.90;1.30;;;;;;;-147.86;100.00;-17609.17;105117;1269;59297;-59
2024/02/08 04:01:11;;;;;;;8.50;1.60;;;;;;;-147.86;100.00;-17609.17;105079;1266;71181;-61
2024/02/08 04:03:53;;;;;;;4.50;1.80;;;;;;;-147.86;100.00;-17609.17;105028;1270;63302;-57
2024/02/08 04:06:37;;;;;;;4.80;1.40;;;;;;;-147.86;100.00;-17609.17;104824;1270;318085;-58
2024/02/08 04:09:16;;;;;;;2.60;1.20;;;;;;;-147.86;100.00;-17609.17;105194;1264;59556;-56
2024/02/08 04:53:43;;;;;;;2.50;1.20;;;;;;;-147.86;100.00;-17609.17;105268;1260;60024;-55
2024/02/08 04:56:11;;;;;;;2.50;1.50;;;;;;;-147.86;100.00;-17609.17;105537;1255;71849;-60
2024/02/08 04:58:41;;;;;;;4.70;1.90;;;;;;;-147.86;100.00;-17609.17;105688;1262;63250;-59
2024/02/08 05:01:12;;;;;;;6.70;2.00;;;;;;;-147.86;100.00;-17609.17;105595;1257;71446;-57
2024/02/08 05:03:42;;;;;;;7.40;2.60;;;;;;;-147.86;100.00;-17609.17;105606;1261;59789;-56
2024/02/08 05:06:18;;;;;;;9.10;2.40;;;;;;;-147.86;100.00;-17609.17;105642;1263;59600;-57
2024/02/08 05:08:48;;;;;;;7.80;2.30;;;;;;;-147.86;100.00;-17609.17;105627;1261;71818;-56
2024/02/08 05:11:16;;;;;;;9.70;2.30;;;;;;;-147.86;100.00;-17609.17;105659;1261;63549;-57
2024/02/08 05:13:51;;;;;;;6.60;1.90;;;;;;;-147.86;100.00;-17609.17;105587;1257;71365;-59
2024/02/08 05:16:19;;;;;;;5.20;2.50;;;;;;;-147.86;100.00;-17609.17;105570;1257;60814;-58
2024/02/08 05:18:47;;;;;;;3.80;2.10;;;;;;;-147.86;100.00;-17609.17;105595;1263;59630;-58
2024/02/08 05:21:16;;;;;;;6.20;2.30;;;;;;;-147.86;100.00;-17609.17;105638;1263;71756;-55
2024/02/08 05:23:44;;;;;;;6.10;2.20;;;;;;;-147.86;100.00;-17609.17;105637;1263;62217;-59
2024/02/08 05:26:18;;;;;;;6.00;2.30;;;;;;;-147.86;100.00;-17609.17;105617;1262;71398;-56
2024/02/08 05:28:46;;;;;;;7.40;2.00;;;;;;;-147.86;100.00;-17609.17;105602;1263;59756;-59
2024/02/08 05:31:17;;;;;;;5.90;2.50;;;;;;;-147.86;100.00;-17609.17;105588;1263;59551;-60
2024/02/08 05:33:45;;;;;;;5.60;2.40;;;;;;;-147.86;100.00;-17609.17;105601;1260;73002;-58
2024/02/08 05:36:17;;;;;;;5.10;2.20;;;;;;;-147.86;100.00;-17609.17;105626;1256;63215;-55
2024/02/08 05:38:46;;;;;;;7.50;2.40;;;;;;;-147.86;100.00;-17609.17;105613;1262;71492;-58
2024/02/08 05:41:17;;;;;;;6.20;1.90;;;;;;;-147.86;100.00;-17609.17;105649;1259;59692;-58
2024/02/08 05:43:45;;;;;;;4.90;2.60;;;;;;;-147.86;100.00;-17609.17;105633;1263;59652;-59
2024/02/08 05:46:21;;;;;;;3.00;2.30;;;;;;;-147.86;100.00;-17609.17;105604;1263;72160;-56
2024/02/08 05:48:51;;;;;;;;;;;;;;;-147.86;100.00;-17609.17;105626;1263;64317;-58
2024/02/08 05:51:25;;;;;;;6.20;2.90;;;;;;;-147.86;100.00;-17609.17;105704;1263;71394;-59
2024/02/08 05:53:53;;;;;;;4.90;2.80;;;;;;;-147.86;100.00;-17609.17;105626;1256;59999;-57
2024/02/08 05:56:21;;;;;;;5.60;2.60;;;;;;;-147.86;100.00;-17609.17;105613;1257;59554;-58
2024/02/08 05:58:52;;;;;;;4.60;2.50;;;;;;;-147.86;100.00;-17609.17;105626;1256;71824;-58
2024/02/08 06:01:20;;;;;;;4.40;2.60;;;;;;;-147.86;100.00;-17609.17;105588;1260;63309;-57
2024/02/08 06:03:48;;;;;;;6.90;2.90;;;;;;;-147.86;100.00;-17609.17;105574;1260;71858;-59
2024/02/08 06:06:34;;;;;;;5.90;2.90;;;;;;;-147.86;100.00;-17609.17;105620;1257;59752;-55
2024/02/08 06:09:08;;;;;;;8.90;4.00;;;;;;;-147.86;100.00;-17609.17;105640;1259;59544;-56
2024/02/08 06:11:39;;;;;;;3.20;2.70;;;;;;;-147.86;100.00;-17609.17;105614;1265;71761;-58
2024/02/08 06:14:17;;;;;;;2.70;2.10;;;;;;;-147.86;100.00;-17609.17;105604;1265;63174;-55
2024/02/08 06:16:48;;;;;;;4.40;2.30;;;;;;;-147.86;100.00;-17609.17;105646;1263;71374;-53
2024/02/08 06:19:17;;;;;;;4.10;2.50;;;;;;;-147.86;100.00;-17609.17;105594;1262;59716;-55
2024/02/08 06:21:45;;;;;;;5.30;2.40;;;;;;;-147.86;100.00;-17609.17;105600;1271;59637;-53
2024/02/08 06:26:58;;;;;;;3.80;2.00;;;;;;;-147.86;100.00;-17609.17;105592;1258;64528;-59
2024/02/08 06:29:38;;;;;;;5.90;2.60;;;;;;;-147.86;100.00;-17609.17;105610;1260;72975;-57
2024/02/08 06:35:11;;;;;;;5.70;2.20;;;;;;;-147.86;100.00;-17609.17;105616;1258;59961;-57
2024/02/08 06:37:44;;;;;;;3.20;1.90;;;;;;;-147.86;100.00;-17609.17;105587;1263;73586;-58
2024/02/08 06:40:36;;;;;;;5.10;2.30;;;;;;;-147.86;100.00;-17609.17;105658;1256;63226;-59
2024/02/08 07:41:56;;;;;;;3.60;1.60;;;;;;;-147.86;100.00;-17609.17;105521;1263;59656;-57
2024/02/08 07:44:30;;;;;;;3.30;1.80;;;;;;;-147.86;100.00;-17609.17;105397;1259;73090;-58
2024/02/08 07:47:05;;;;;;;3.60;2.10;;;;;;;-147.86;100.00;-17609.17;105439;1261;63097;-56
2024/02/08 07:49:42;;;;;;;3.90;2.10;;;;;;;-147.86;100.00;-17609.17;105352;1260;72613;-56
2024/02/08 07:52:19;;;;;;;3.30;2.00;;;;;;;-147.86;100.00;-17609.17;105211;1261;60873;-59
2024/02/08 07:55:14;;;;;;;3.70;1.80;;;;;;;-147.86;100.00;-17609.17;105286;1265;59810;-55
2024/02/08 07:57:46;;;;;;;3.40;1.80;;;;;;;-147.86;100.00;-17609.17;105320;1260;71813;-54
2024/02/08 08:03:10;;;;;;;2.50;2.10;;;;;;;-147.86;100.00;-17609.17;105173;1260;71632;-60
2024/02/08 08:05:44;;;;;;;2.60;1.90;;;;;;;-147.86;100.00;-17609.17;105230;1266;59664;-60
2024/02/08 08:08:32;;;;;;;6.40;2.30;;;;;;;-147.86;100.00;-17609.17;105807;1258;59703;-57
2024/02/08 08:11:03;;;;;;;3.30;2.40;;;;;;;-147.86;100.00;-17609.17;105797;1252;71745;-58
2024/02/08 08:18:58;;;;;;;3.80;2.30;;;;;;;-147.86;100.00;-17609.17;105777;1254;60101;-56
2024/02/08 08:21:27;;;;;;;6.80;2.30;;;;;;;-147.86;100.00;-17609.17;105780;1256;59769;-56
2024/02/08 08:24:02;;;;;;;5.70;2.70;;;;;;;-147.86;100.00;-17609.17;105906;1254;72991;-57
2024/02/08 08:26:40;;;;;;;5.60;2.40;;;;;;;-147.86;100.00;-17609.17;105803;1252;66573;-55
2024/02/08 08:29:17;;;;;;;7.10;3.10;;;;;;;-147.86;100.00;-17609.17;105918;1252;72390;-59
2024/02/08 08:31:51;;;;;;;6.90;2.70;;;;;;;-147.86;100.00;-17609.17;105754;1256;59704;-59
2024/02/08 08:35:37;;;;;;;8.60;3.10;;;;;;;-147.86;100.00;-17609.17;105829;1257;60576;-60
2024/02/08 08:53:07;;;;;;;8.40;2.90;;;;;;;-147.86;100.00;-17609.17;102753;1289;600365;-60
2024/02/08 08:55:39;;;;;;;3.70;2.50;;;;;;;-147.86;100.00;-17609.17;105529;1258;59277;-58
2024/02/08 08:58:12;;;;;;;8.00;2.60;;;;;;;-147.86;100.00;-17609.17;105582;1257;62267;-57
2024/02/08 09:00:46;;;;;;;6.40;2.20;;;;;;;-147.86;100.00;-17609.17;105582;1258;72328;-56
2024/02/08 09:03:27;;;;;;;10.80;2.50;;;;;;;-147.86;100.00;-17609.17;105527;1257;63127;-61
2024/02/08 09:05:58;;;;;;;4.00;2.00;;;;;;;-147.86;100.00;-17609.17;105327;1261;244871;-60
2024/02/08 09:08:43;;;;;;;3.20;1.90;;;;;;;-147.86;100.00;-17609.17;105720;1257;60329;-55
2024/02/08 09:11:14;;;;;;;6.80;2.00;;;;;;;-147.86;100.00;-17609.17;105662;1256;59911;-58
2024/02/08 09:13:43;;;;;;;6.10;1.80;;;;;;;-147.86;100.00;-17609.17;105626;1254;74662;-56
2024/02/08 09:21:35;;;;;;;9.50;2.30;;;;;;;-147.86;100.00;-17609.17;105661;1259;59647;-52
2024/02/08 09:24:05;;;;;;;3.30;1.70;;;;;;;-147.86;100.00;-17609.17;105638;1259;60059;-60
2024/02/08 09:26:48;;;;;;;6.30;2.20;;;;;;;-147.86;100.00;-17609.17;105659;1254;74530;-53
2024/02/08 09:29:26;;;;;;;8.10;2.10;;;;;;;-147.86;100.00;-17609.17;105633;1259;65007;-57
2024/02/08 09:32:14;;;;;;;3.50;2.80;;;;;;;-147.86;100.00;-17609.17;105613;1254;73652;-58
2024/02/08 09:34:46;;;;;;;8.00;3.50;;;;;;;-147.86;100.00;-17609.17;105655;1259;59673;-59
2024/02/08 09:37:15;;;;;;;6.50;3.40;;;;;;;-147.86;100.00;-17609.17;105686;1259;59657;-57
2024/02/08 09:42:29;;;;;;;22.00;4.90;;;;;;;-147.86;100.00;-17609.17;105635;1256;63197;-59
2024/02/08 09:47:59;;;;;;;5.60;3.80;;;;;;;-147.86;100.00;-17609.17;105665;1259;61315;-54
2024/02/08 09:50:35;;;;;;;4.30;3.80;;;;;;;-147.86;100.00;-17609.17;105676;1256;60344;-57
2024/02/08 09:56:25;;;;;;;7.00;4.10;;;;;;;-147.86;100.00;-17609.17;105404;1260;64876;-57
2024/02/08 09:58:55;;;;;;;4.90;3.30;;;;;;;-147.86;100.00;-17609.17;105642;1255;71508;-57
2024/02/08 10:01:43;;;;;;;4.00;3.30;;;;;;;-147.86;100.00;-17609.17;105619;1259;61482;-56
2024/02/08 10:04:16;;;;;;;3.50;2.60;;;;;;;-147.86;100.00;-17609.17;105584;1259;61208;-57
2024/02/08 10:06:45;;;;;;;3.80;2.90;;;;;;;-147.86;100.00;-17609.17;105563;1257;75263;-57
2024/02/08 10:12:08;;;;;;;8.40;3.80;;;;;;;-147.86;100.00;-17609.17;105601;1260;73545;-57
2024/02/08 10:14:38;;;;;;;6.80;4.10;;;;;;;-147.86;100.00;-17609.17;105895;1258;59609;-56
2024/02/08 10:17:17;;;;;;;4.80;3.20;;;;;;;-147.86;100.00;-17609.17;105968;1253;62000;-60
2024/02/08 10:24:25;;;;;;;8.00;3.80;;;;;;;-147.86;100.00;-17609.17;102820;1290;600135;-57
2024/02/08 10:26:58;;;;;;;7.90;3.80;;;;;;;-147.86;100.00;-17609.17;105163;1264;59257;-57
2024/02/08 10:29:31;;;;;;;5.80;3.20;;;;;;;-147.86;100.00;-17609.17;105064;1266;59442;-57
2024/02/08 10:32:00;;;;;;;8.60;3.80;;;;;;;-147.86;100.00;-17609.17;105116;1269;72721;-56
2024/02/08 10:34:39;;;;;;;6.30;3.50;;;;;;;-147.86;100.00;-17609.17;105130;1269;66350;-55
2024/02/08 10:40:28;;;;;;;5.40;3.80;;;;;;;-147.86;100.00;-17609.17;105231;1266;61268;-56
2024/02/08 10:42:58;;;;;;;10.00;3.80;;;;;;;-147.86;100.00;-17609.17;105170;1262;61897;-60
2024/02/08 10:45:32;;;;;;;7.20;3.80;;;;;;;-147.86;100.00;-17609.17;105177;1264;74189;-54
2024/02/08 10:48:00;;;;;;;6.90;3.60;;;;;;;-147.86;100.00;-17609.17;105247;1262;65502;-61
2024/02/08 10:50:29;;;;;;;4.90;3.10;;;;;;;-147.86;100.00;-17609.17;104827;1264;72556;-56
2024/02/08 10:53:00;;;;;;;2.40;2.10;;;;;;;-147.86;100.00;-17609.17;105129;1266;60779;-54
2024/02/08 10:55:36;;;;;;;2.20;2.00;;;;;;;-147.86;100.00;-17609.17;105145;1264;61924;-58
2024/02/08 11:03:33;;;;;;;2.10;1.70;;;;;;;-147.86;100.00;-17609.17;105127;1264;72329;-60
2024/02/08 11:06:04;;;;;;;2.20;1.60;;;;;;;-147.86;100.00;-17609.17;105115;1264;62288;-58
2024/02/08 11:08:50;;;;;;;2.20;1.90;;;;;;;-147.86;100.00;-17609.17;105140;1263;61836;-57
2024/02/08 11:11:20;;;;;;;2.90;1.70;;;;;;;-147.86;100.00;-17609.17;105160;1264;72335;-57
2024/02/08 11:13:53;;;;;;;2.10;1.70;;;;;;;-147.86;100.00;-17609.17;105152;1264;64365;-54
2024/02/08 11:16:23;;;;;;;2.00;1.80;;;;;;;-147.86;100.00;-17609.17;105151;1264;71163;-56
2024/02/08 11:18:52;;;;;;;3.30;1.80;;;;;;;-147.86;100.00;-17609.17;105137;1264;59657;-57
2024/02/08 11:22:18;;;;;;;2.20;1.60;;;;;;;-147.86;100.00;-17609.17;105148;1268;59839;-60
2024/02/08 11:24:28;;;;;;;4.30;1.70;;;;;;;-147.86;100.00;-17609.17;104999;1264;73332;-54
2024/02/08 11:27:01;;;;;;;1.90;1.80;;;;;;;-147.86;100.00;-17609.17;105117;1264;64762;-58
2024/02/08 11:29:46;;;;;;;2.90;1.60;;;;;;;-147.86;100.00;-17609.17;105127;1263;73847;-56
2024/02/08 11:32:18;;;;;;;3.90;1.80;;;;;;;-147.86;100.00;-17609.17;105170;1266;59930;-56
2024/02/08 11:34:46;;;;;;;3.70;1.60;;;;;;;-147.86;100.00;-17609.17;105141;1263;59904;-58
2024/02/08 11:37:18;;;;;;;5.80;1.60;;;;;;;-147.86;100.00;-17609.17;105128;1268;72622;-57
2024/02/08 11:39:58;;;;;;;1.60;1.40;;;;;;;-147.86;100.00;-17609.17;105172;1268;66559;-60
2024/02/08 11:42:37;;;;;;;1.40;1.30;;;;;;;-147.86;100.00;-17609.17;105122;1264;72510;-58
2024/02/08 11:45:08;;;;;;;3.00;1.70;;;;;;;-147.86;100.00;-17609.17;105117;1264;59656;-61
2024/02/08 11:47:41;;;;;;;2.90;1.60;;;;;;;-147.86;100.00;-17609.17;105109;1263;60294;-55
2024/02/08 11:50:20;;;;;;;3.50;1.60;;;;;;;-147.86;100.00;-17609.17;104901;1264;73002;-53
2024/02/08 11:52:58;;;;;;;3.20;2.30;;;;;;;-147.86;100.00;-17609.17;105156;1264;64693;-61
2024/02/08 11:55:28;;;;;;;6.10;2.30;;;;;;;-147.86;100.00;-17609.17;105121;1264;73841;-58
2024/02/08 11:57:56;;;;;;;5.50;2.50;;;;;;;-147.86;100.00;-17609.17;104880;1272;60334;-59
2024/02/08 12:00:25;;;;;;;4.50;2.00;;;;;;;-147.86;100.00;-17609.17;105234;1260;60889;-57
2024/02/08 12:02:58;;;;;;;2.90;2.00;;;;;;;-147.86;100.00;-17609.17;105236;1260;74253;-54
2024/02/08 12:05:28;;;;;;;3.40;2.10;;;;;;;-147.86;100.00;-17609.17;105257;1266;65532;-58
2024/02/08 12:08:09;;;;;;;2.30;2.00;;;;;;;-147.86;100.00;-17609.17;105257;1260;73169;-59
2024/02/08 12:10:43;;;;;;;4.90;2.50;;;;;;;-147.86;100.00;-17609.17;105259;1263;59788;-56
2024/02/08 12:13:12;;;;;;;4.20;2.50;;;;;;;-147.86;100.00;-17609.17;105261;1260;59865;-58
2024/02/08 12:15:55;;;;;;;3.10;2.10;;;;;;;-147.86;100.00;-17609.17;105233;1263;73518;-57
2024/02/08 12:18:28;;;;;;;2.20;2.00;;;;;;;-147.86;100.00;-17609.17;105286;1265;64639;-55
2024/02/08 12:21:00;;;;;;;3.20;2.20;;;;;;;-147.86;100.00;-17609.17;105222;1261;73737;-56
2024/02/08 12:23:31;;;;;;;4.10;2.50;;;;;;;-147.86;100.00;-17609.17;105260;1265;61753;-58
2024/02/08 12:26:06;;;;;;;5.90;2.70;;;;;;;-147.86;100.00;-17609.17;105235;1260;60875;-59
2024/02/08 12:28:39;;;;;;;2.60;2.30;;;;;;;-147.86;100.00;-17609.17;105251;1261;74177;-58
2024/02/08 12:31:16;;;;;;;2.40;2.20;;;;;;;-147.86;100.00;-17609.17;105236;1260;64283;-61
2024/02/08 12:33:50;;;;;;;5.70;2.80;;;;;;;-147.86;100.00;-17609.17;105285;1261;71297;-53
2024/02/08 12:36:23;;;;;;;5.00;2.80;;;;;;;-147.86;100.00;-17609.17;105229;1265;61509;-54
2024/02/08 12:38:52;;;;;;;20.70;4.00;;;;;;;-147.86;100.00;-17609.17;105268;1260;59928;-57
2024/02/08 12:41:23;;;;;;;7.20;2.80;;;;;;;-147.86;100.00;-17609.17;105237;1266;72916;-58
2024/02/08 12:43:52;;;;;;;5.60;2.70;;;;;;;-147.86;100.00;-17609.17;105281;1265;64888;-58
2024/02/08 12:46:20;;;;;;;2.70;2.50;;;;;;;-147.86;100.00;-17609.17;105311;1266;72771;-62
2024/02/08 12:48:48;;;;;;;3.90;2.90;;;;;;;-147.86;100.00;-17609.17;105222;1260;59637;-53
2024/02/08 12:51:19;;;;;;;6.40;3.40;;;;;;;-147.86;100.00;-17609.17;105232;1260;62127;-56
2024/02/08 12:53:49;;;;;;;7.20;3.00;;;;;;;-147.86;100.00;-17609.17;105275;1265;73296;-56
2024/02/08 12:56:18;;;;;;;3.50;2.40;;;;;;;-147.86;100.00;-17609.17;105261;1261;64438;-57
2024/02/08 12:58:47;;;;;;;4.60;2.30;;;;;;;-147.86;100.00;-17609.17;105270;1260;72709;-59
2024/02/08 13:01:18;;;;;;;2.60;2.40;;;;;;;-147.86;99.99;-17609.17;105282;1265;59756;-54
2024/02/08 13:03:49;;;;;;;5.00;2.40;;;;;;;-147.86;99.95;-17609.17;105230;1265;59705;-57
2024/02/08 13:06:17;;;;;;;3.70;2.30;;;;;;;-147.86;99.98;-17609.17;105251;1261;72878;-54
2024/02/08 13:08:46;;;;;;;5.60;1.90;;;;;;;-147.86;99.22;-17609.17;105267;1266;64326;-58
2024/02/08 13:11:19;;;;;;;5.30;2.70;;;;;;;-147.86;98.47;-17609.17;105224;1260;72644;-54
2024/02/08 13:13:48;;;;;;;5.60;2.40;;;;;;;-147.86;98.93;-17609.17;105204;1266;60688;-57
2024/02/08 13:16:16;;;;;;;5.70;2.40;;;;;;;-147.86;99.68;-17609.17;105279;1260;59701;-59
2024/02/08 13:18:55;;;;;;;5.70;2.60;;;;;;;-147.86;100.00;-17609.17;105310;1261;73853;-55
2024/02/08 13:21:24;;;;;;;6.10;2.80;;;;;;;-147.86;100.00;-17609.17;105299;1261;64387;-58
2024/02/08 13:23:55;;;;;;;12.50;3.80;;;;;;;-147.86;100.00;-17609.17;105220;1260;72378;-56
2024/02/08 13:26:25;;;;;;;10.80;3.10;;;;;;;-147.86;100.00;-17609.17;105260;1260;60354;-56
2024/02/08 13:29:04;;;;;;;5.60;3.20;;;;;;;-147.86;100.00;-17609.17;105207;1260;61150;-57
2024/02/08 13:31:31;;;;;;;8.90;3.70;;;;;;;-147.86;100.00;-17609.17;105613;1261;73869;-53
2024/02/08 13:34:01;;;;;;;10.80;3.50;;;;;;;-147.86;100.00;-17609.17;105597;1261;65957;-55
2024/02/08 13:36:29;;;;;;;5.40;3.70;;;;;;;-147.86;99.35;-17609.17;105626;1257;74706;-55
2024/02/08 13:38:57;;;;;;;12.90;4.60;;;;;;;-147.86;98.51;-17609.17;105581;1257;59742;-56
2024/02/08 13:41:25;;;;;;;12.60;4.40;;;;;;;-147.86;98.03;-17609.17;105634;1263;61127;-55
2024/02/08 13:43:52;;;;;;;9.70;4.40;;;;;;;-147.86;98.00;-17609.17;105580;1257;74952;-60
2024/02/08 13:46:21;;;;;;;8.80;4.40;;;;;;;-147.86;97.88;-17609.17;105584;1260;64282;-59
2024/02/08 13:48:51;;;;;;;10.30;4.50;;;;;;;-147.86;98.31;-17609.17;105644;1261;72563;-57
2024/02/08 13:51:20;;;;;;;6.80;4.40;;;;;;;-147.86;98.79;-17609.17;105583;1257;59701;-61
2024/02/08 13:53:50;;;;;;;10.70;4.80;;;;;;;-147.86;99.21;-17609.17;105563;1256;59737;-58
2024/02/08 13:56:17;;;;;;;10.60;4.80;;;;;;;-147.86;99.40;-17609.17;105584;1259;75122;-59
2024/02/08 13:58:48;;;;;;;9.70;5.00;;;;;;;-147.86;99.91;-17609.17;105599;1261;64485;-54
2024/02/08 14:01:25;;;;;;;10.80;5.20;;;;;;;-147.86;100.00;-17609.17;105630;1257;72567;-57
2024/02/08 14:03:58;;;;;;;15.90;6.20;;;;;;;-147.86;100.00;-17609.17;105616;1261;59715;-57
2024/02/08 14:06:27;;;;;;;15.90;6.00;;;;;;;-147.86;100.00;-17609.17;105657;1257;60405;-58
2024/02/08 14:09:19;;;;;;;20.70;6.00;;;;;;;-147.86;100.00;-17609.17;105598;1257;73692;-57
2024/02/08 14:11:51;;;;;;;14.50;4.80;;;;;;;-147.86;100.00;-17609.17;105625;1261;66745;-57
2024/02/08 14:14:23;;;;;;;17.40;4.70;;;;;;;-147.86;100.00;-17609.17;105634;1257;72890;-55
2024/02/08 14:16:55;;;;;;;9.30;4.40;;;;;;;-147.86;100.00;-17609.17;105528;1256;60167;-60
2024/02/08 14:19:33;;;;;;;7.10;3.60;;;;;;;-147.86;100.00;-17609.17;105587;1260;61136;-59